Nebraska City, Nebraska
Current Conditions -  °F | °C
As of 5:55 PM on Saturday 25 Oct 2014 (Local Time) from KAFK Reporting Station
Clear Clear  
Wind Chill: 72°   Ceiling: Unl
Heat Index: 72°   Visibility: 10mi
Dew Point: 34°   Wind: 5mph
Humidity: 25%   Direction: 60°ENE
Pressure: 30.03"   Gusts: NA
Location:  40.68°N, 95.86°W
Report Text: KAFK 252255Z AUTO 06004KT 10SM CLR 22/01 A3003 RMK AO2 T02210010
Loading
Personal Weather Stations






























Interactive Weather Map
Tropical Storm Tracking
New forecast layout! Learn more

10-Day Weather Forecast

Advertisements
Track Severe Weather on mobile